createdAt,value
2023-07-25T00:02:15.812Z,70.29
2023-07-25T00:08:59.781Z,70.67
2023-07-25T00:22:25.482Z,70.29
2023-07-25T00:25:46.192Z,70.36
2023-07-25T00:28:51.269Z,70.46
2023-07-25T00:32:08.201Z,70.59
2023-07-25T00:35:17.701Z,70.55
2023-07-25T00:38:06.121Z,70.62
2023-07-25T00:41:35.024Z,70.52
2023-07-25T00:44:26.149Z,70.96
2023-07-25T01:01:08.123Z,70.87
2023-07-25T01:03:59.662Z,70.58
2023-07-25T01:06:49.042Z,70.33
2023-07-25T01:09:37.286Z,70.23
2023-07-25T01:12:58.690Z,70.48
2023-07-25T01:15:54.944Z,70.60
2023-07-25T01:18:43.012Z,70.55
2023-07-25T01:21:30.426Z,70.40
2023-07-25T01:24:18.200Z,70.13
2023-07-25T01:27:05.243Z,69.98
2023-07-25T01:29:52.292Z,70.03
2023-07-25T01:32:39.164Z,70.09
2023-07-25T01:35:25.810Z,70.33
2023-07-25T01:38:12.917Z,70.76
2023-07-25T01:41:01.925Z,70.86
2023-07-25T01:43:48.845Z,70.69
2023-07-25T01:46:36.145Z,70.71
2023-07-25T01:49:22.970Z,70.74
2023-07-25T01:52:10.044Z,70.76
2023-07-25T01:54:57.073Z,71.19
2023-07-25T01:57:44.135Z,71.38
2023-07-25T02:00:31.228Z,71.56
2023-07-25T02:03:19.542Z,71.43
2023-07-25T02:06:08.010Z,71.55
2023-07-25T02:08:54.668Z,71.41
2023-07-25T02:11:41.639Z,71.61
2023-07-25T02:14:28.411Z,71.78
2023-07-25T02:17:15.157Z,72.15
2023-07-25T02:20:01.793Z,72.25
2023-07-25T02:22:48.441Z,72.03
2023-07-25T02:25:35.989Z,72.09
2023-07-25T02:28:23.486Z,72.24
2023-07-25T02:31:10.373Z,72.18
2023-07-25T02:33:57.482Z,72.50
2023-07-25T02:36:44.554Z,72.51
2023-07-25T02:39:31.519Z,72.48
2023-07-25T02:42:19.681Z,72.36
2023-07-25T02:45:08.232Z,72.44
2023-07-25T02:47:55.313Z,72.51
2023-07-25T02:50:42.090Z,72.69
2023-07-25T02:53:29.082Z,72.62
2023-07-25T02:56:15.957Z,72.80
2023-07-25T02:59:02.888Z,72.71
2023-07-25T03:01:49.770Z,72.70
2023-07-25T03:04:36.887Z,72.61
2023-07-25T03:07:24.071Z,72.56
2023-07-25T03:10:11.853Z,72.48
2023-07-25T03:12:58.532Z,72.68
2023-07-25T03:15:45.556Z,72.85
2023-07-25T03:18:32.713Z,72.99
2023-07-25T03:21:19.972Z,72.93
2023-07-25T03:24:07.401Z,72.68
2023-07-25T03:26:54.192Z,72.63
2023-07-25T03:29:41.229Z,72.42
2023-07-25T03:32:28.524Z,72.56
2023-07-25T03:35:15.285Z,72.75
2023-07-25T03:38:02.107Z,72.97
2023-07-25T03:40:49.290Z,73.01
2023-07-25T03:43:35.833Z,72.78
2023-07-25T03:46:22.669Z,72.96
2023-07-25T03:49:09.900Z,73.31
2023-07-25T03:51:57.453Z,73.50
2023-07-25T03:54:44.511Z,73.43
2023-07-25T03:57:31.535Z,73.30
2023-07-25T04:00:18.980Z,73.06
2023-07-25T04:03:15.103Z,72.83
2023-07-25T04:06:03.093Z,73.08
2023-07-25T04:08:49.736Z,72.93
2023-07-25T04:11:36.690Z,72.73
2023-07-25T04:14:24.961Z,72.43
2023-07-25T04:17:12.842Z,72.29
2023-07-25T04:19:59.895Z,72.52
2023-07-25T04:22:46.813Z,72.49
2023-07-25T04:25:34.650Z,72.41
2023-07-25T04:28:23.001Z,72.15
2023-07-25T04:31:11.448Z,72.02
2023-07-25T04:33:58.166Z,72.12
2023-07-25T04:36:45.680Z,71.94
2023-07-25T04:39:32.615Z,71.40
2023-07-25T04:42:19.363Z,71.36
2023-07-25T04:45:06.787Z,71.32
2023-07-25T04:47:53.970Z,70.99
2023-07-25T04:50:40.788Z,70.51
2023-07-25T04:53:41.983Z,70.47
2023-07-25T04:57:12.541Z,70.48
2023-07-25T05:00:00.386Z,70.02
2023-07-25T05:02:50.084Z,69.89
2023-07-25T05:05:41.319Z,69.80
2023-07-25T05:08:28.920Z,70.13
2023-07-25T05:11:17.404Z,69.98
2023-07-25T05:14:04.722Z,69.66
2023-07-25T05:16:51.762Z,69.30
2023-07-25T05:19:44.289Z,68.94
2023-07-25T05:22:32.071Z,68.48
2023-07-25T05:25:18.818Z,67.99
2023-07-25T05:28:05.878Z,67.60
2023-07-25T05:30:52.846Z,67.47
2023-07-25T05:33:39.852Z,67.44
2023-07-25T05:36:27.037Z,67.24
2023-07-25T05:39:13.761Z,67.20
2023-07-25T05:42:00.882Z,67.13
2023-07-25T05:44:47.895Z,66.91
2023-07-25T05:47:34.952Z,66.46
2023-07-25T05:50:30.647Z,66.39
2023-07-25T05:53:41.664Z,66.98
2023-07-25T05:56:28.601Z,67.61
2023-07-25T05:59:17.779Z,67.85
2023-07-25T06:02:07.159Z,67.95
2023-07-25T06:04:57.391Z,67.87
2023-07-25T06:07:44.534Z,67.45
2023-07-25T06:10:32.831Z,67.23
2023-07-25T06:13:19.565Z,67.67
2023-07-25T06:16:07.960Z,67.44
2023-07-25T06:18:54.935Z,67.34
2023-07-25T06:21:41.898Z,67.15
2023-07-25T06:24:28.928Z,66.82
2023-07-25T06:27:15.837Z,66.86
2023-07-25T06:30:04.084Z,66.96
2023-07-25T06:32:55.223Z,66.75
2023-07-25T06:35:42.897Z,66.69
2023-07-25T06:38:30.454Z,66.30
2023-07-25T06:41:19.269Z,66.20
2023-07-25T06:44:06.369Z,65.75
2023-07-25T06:46:53.328Z,65.61
2023-07-25T06:49:40.215Z,65.35
2023-07-25T06:52:28.442Z,65.52
2023-07-25T06:55:17.635Z,65.45
2023-07-25T06:58:05.020Z,65.26
2023-07-25T07:00:51.884Z,64.58
2023-07-25T07:04:02.892Z,64.55
2023-07-25T07:06:49.851Z,64.66
2023-07-25T07:09:37.110Z,64.50
2023-07-25T07:12:23.999Z,63.57
2023-07-25T07:15:11.462Z,63.68
2023-07-25T07:18:00.465Z,62.86
2023-07-25T07:20:49.455Z,62.03
2023-07-25T07:23:36.448Z,61.53
2023-07-25T07:26:23.632Z,60.36
2023-07-25T07:29:16.871Z,60.37
2023-07-25T07:32:39.875Z,59.48
2023-07-25T07:35:27.056Z,58.96
2023-07-25T07:38:13.826Z,58.26
2023-07-25T07:41:00.491Z,57.65
2023-07-25T07:43:47.760Z,57.39
2023-07-25T07:46:36.010Z,57.52
2023-07-25T07:49:22.982Z,56.68
2023-07-25T07:52:17.670Z,56.14
2023-07-25T07:55:11.822Z,56.13
2023-07-25T07:57:59.064Z,55.85
2023-07-25T08:00:49.674Z,55.90
2023-07-25T08:03:36.611Z,56.16
2023-07-25T08:06:23.508Z,56.72
2023-07-25T08:09:10.540Z,56.73
2023-07-25T08:12:00.148Z,56.77
2023-07-25T08:15:00.166Z,56.19
2023-07-25T08:18:05.372Z,55.51
2023-07-25T08:20:59.463Z,55.30
2023-07-25T08:23:46.173Z,54.57
2023-07-25T08:26:34.336Z,54.57
2023-07-25T08:29:21.004Z,54.57
2023-07-25T08:32:10.000Z,54.25
2023-07-25T08:34:56.852Z,54.12
2023-07-25T08:37:58.756Z,54.48
2023-07-25T08:40:52.370Z,54.58
2023-07-25T08:43:41.450Z,54.26
2023-07-25T08:46:29.589Z,54.24
2023-07-25T08:49:18.422Z,54.01
2023-07-25T08:52:06.998Z,53.64
2023-07-25T08:54:58.115Z,53.72
2023-07-25T08:58:27.145Z,53.97
2023-07-25T09:01:14.891Z,53.96
2023-07-25T09:04:03.197Z,53.97
2023-07-25T09:06:50.622Z,54.17
2023-07-25T09:09:37.307Z,53.72
2023-07-25T09:12:24.666Z,53.43
2023-07-25T09:15:12.538Z,53.38
2023-07-25T09:18:00.728Z,53.34
2023-07-25T09:20:47.402Z,53.46
2023-07-25T09:23:34.151Z,52.86
2023-07-25T09:26:25.420Z,52.87
2023-07-25T09:29:12.527Z,53.07
2023-07-25T09:31:59.562Z,53.20
2023-07-25T09:34:48.108Z,52.82
2023-07-25T09:37:35.041Z,53.11
2023-07-25T09:40:23.014Z,53.22
2023-07-25T09:43:22.744Z,53.46
2023-07-25T09:46:10.426Z,54.01
2023-07-25T09:48:57.536Z,53.52
2023-07-25T09:52:01.116Z,52.76
2023-07-25T09:54:49.150Z,52.63
2023-07-25T09:57:43.075Z,52.99
2023-07-25T10:00:35.768Z,53.21
2023-07-25T10:03:24.128Z,53.32
2023-07-25T10:06:12.176Z,53.13
2023-07-25T10:08:59.478Z,52.76
2023-07-25T10:11:51.020Z,52.28
2023-07-25T10:14:40.871Z,52.14
2023-07-25T10:17:28.408Z,51.81
2023-07-25T10:20:23.920Z,51.39
2023-07-25T10:23:12.759Z,51.41
2023-07-25T10:26:14.712Z,50.67
2023-07-25T10:29:03.041Z,49.99
2023-07-25T10:31:55.952Z,49.80
2023-07-25T10:35:04.890Z,49.16
2023-07-25T10:37:52.948Z,49.03
2023-07-25T10:40:54.950Z,48.97
2023-07-25T10:43:50.258Z,48.75
2023-07-25T10:46:37.497Z,49.13
2023-07-25T10:49:24.558Z,49.77
2023-07-25T10:52:11.568Z,49.93
2023-07-25T10:55:05.335Z,50.29
2023-07-25T10:58:09.787Z,50.50
2023-07-25T11:00:56.831Z,50.84
2023-07-25T11:03:44.401Z,50.72
2023-07-25T11:06:37.386Z,50.78
2023-07-25T11:09:25.527Z,50.17
2023-07-25T11:12:13.575Z,49.84
2023-07-25T11:15:01.781Z,49.93
2023-07-25T11:17:49.737Z,49.63
2023-07-25T11:20:36.634Z,48.85
2023-07-25T11:23:23.654Z,48.80
2023-07-25T11:26:13.510Z,48.51
2023-07-25T11:29:18.996Z,48.79
2023-07-25T11:32:06.735Z,48.49
2023-07-25T11:34:53.503Z,48.46
2023-07-25T11:37:40.592Z,48.75
2023-07-25T11:40:33.720Z,48.84
2023-07-25T11:43:21.376Z,49.05
2023-07-25T11:46:12.949Z,49.31
2023-07-25T11:49:01.274Z,49.53
2023-07-25T11:51:52.867Z,49.66
2023-07-25T11:54:42.549Z,49.36
2023-07-25T11:57:29.994Z,49.81
2023-07-25T12:00:17.791Z,50.01
2023-07-25T12:03:16.274Z,50.82
2023-07-25T12:06:03.400Z,52.19
2023-07-25T12:08:51.548Z,52.66
2023-07-25T12:11:45.464Z,53.39
2023-07-25T12:14:33.616Z,53.90
2023-07-25T12:17:20.350Z,53.52
2023-07-25T12:24:12.916Z,51.96
2023-07-25T12:31:22.407Z,51.85
2023-07-25T12:34:09.563Z,51.37
2023-07-25T12:36:58.226Z,50.71
2023-07-25T12:40:12.743Z,49.92
2023-07-25T12:43:02.457Z,49.31
2023-07-25T12:45:49.495Z,48.93
2023-07-25T12:48:49.166Z,48.32
2023-07-25T12:51:43.981Z,47.60
2023-07-25T12:54:30.968Z,47.25
2023-07-25T12:57:18.533Z,47.15
2023-07-25T13:26:04.425Z,45.00
2023-07-25T13:28:51.247Z,44.67
2023-07-25T13:31:37.961Z,44.79
2023-07-25T13:34:26.161Z,44.69
2023-07-25T13:37:19.352Z,44.64
2023-07-25T13:40:07.545Z,44.68
2023-07-25T13:42:54.363Z,44.59
2023-07-25T13:45:51.871Z,44.12
2023-07-25T13:48:40.343Z,44.44
2023-07-25T13:51:27.472Z,44.56
2023-07-25T13:54:15.274Z,44.53
2023-07-25T13:57:05.558Z,43.77
2023-07-25T13:59:53.750Z,43.95
2023-07-25T14:02:43.650Z,43.57
2023-07-25T14:05:30.887Z,43.33
2023-07-25T14:08:17.480Z,43.01
2023-07-25T14:11:04.937Z,43.32
2023-07-25T14:13:54.219Z,43.24
2023-07-25T14:16:41.392Z,43.19
2023-07-25T14:19:28.495Z,43.66
2023-07-25T14:22:15.998Z,43.95
2023-07-25T14:25:03.200Z,43.78
2023-07-25T14:27:50.710Z,43.91
2023-07-25T14:30:38.195Z,43.49
2023-07-25T14:33:28.183Z,42.93
2023-07-25T14:36:17.135Z,42.80
2023-07-25T14:39:05.133Z,42.88
2023-07-25T14:41:53.023Z,43.40
2023-07-25T14:44:39.767Z,43.33
2023-07-25T14:47:27.042Z,42.91
2023-07-25T14:50:14.076Z,42.65
2023-07-25T14:53:03.081Z,42.57
2023-07-25T14:55:52.207Z,42.74
2023-07-25T14:58:39.710Z,42.76
2023-07-25T15:01:26.572Z,42.53
2023-07-25T15:04:13.348Z,42.28
2023-07-25T15:07:00.903Z,42.10
2023-07-25T15:09:47.989Z,42.22
2023-07-25T15:12:35.262Z,42.27
2023-07-25T15:15:22.532Z,42.09
2023-07-25T15:18:10.227Z,42.13
2023-07-25T15:20:57.399Z,42.23
2023-07-25T15:23:44.429Z,42.00
2023-07-25T15:26:32.173Z,42.02
2023-07-25T15:29:19.268Z,41.88
2023-07-25T15:32:08.342Z,42.94
2023-07-25T15:34:55.283Z,43.79
2023-07-25T15:37:58.758Z,44.77
2023-07-25T15:40:54.653Z,45.90
2023-07-25T15:43:53.627Z,47.52
2023-07-25T15:46:40.366Z,48.26
2023-07-25T15:49:28.979Z,49.53
2023-07-25T15:52:16.688Z,49.98
2023-07-25T15:55:08.635Z,50.82
2023-07-25T15:58:01.414Z,51.31
2023-07-25T16:00:48.434Z,51.79
2023-07-25T16:03:35.555Z,52.23
2023-07-25T16:06:22.659Z,52.80
2023-07-25T16:09:10.538Z,53.41
2023-07-25T16:11:57.378Z,54.13
2023-07-25T16:14:44.530Z,54.73
2023-07-25T16:17:31.881Z,55.10
2023-07-25T16:20:19.242Z,55.51
2023-07-25T16:23:07.114Z,56.15
2023-07-25T16:26:00.829Z,56.37
2023-07-25T16:28:51.029Z,56.55
2023-07-25T16:31:38.308Z,56.97
2023-07-25T16:34:25.496Z,57.53
2023-07-25T16:37:12.578Z,58.12
2023-07-25T16:40:01.928Z,58.53
2023-07-25T16:42:49.244Z,59.18
2023-07-25T16:45:37.314Z,59.99
2023-07-25T16:48:24.616Z,60.43
2023-07-25T16:51:13.114Z,60.59
2023-07-25T16:54:02.232Z,60.47
2023-07-25T16:56:49.516Z,60.66
2023-07-25T16:59:36.221Z,60.69
2023-07-25T17:02:23.437Z,60.83
2023-07-25T17:05:13.485Z,61.34
2023-07-25T17:08:00.625Z,61.26
2023-07-25T17:10:47.282Z,61.33
2023-07-25T17:13:35.210Z,61.20
2023-07-25T17:16:24.270Z,61.46
2023-07-25T17:19:13.830Z,61.36
2023-07-25T17:22:00.866Z,61.50
2023-07-25T17:24:47.817Z,61.28
2023-07-25T17:27:35.007Z,61.18
2023-07-25T17:30:21.820Z,61.02
2023-07-25T17:33:08.642Z,61.18
2023-07-25T17:35:55.603Z,61.25
2023-07-25T17:38:42.452Z,61.36
2023-07-25T17:41:30.829Z,61.39
2023-07-25T17:44:18.618Z,61.62
2023-07-25T17:47:06.007Z,61.58
2023-07-25T17:49:53.933Z,61.50
2023-07-25T17:52:40.631Z,61.33
2023-07-25T17:55:27.475Z,61.29
2023-07-25T17:58:14.400Z,61.26
2023-07-25T18:01:03.699Z,61.45
2023-07-25T18:03:52.995Z,61.50
2023-07-25T18:06:40.093Z,61.73
2023-07-25T18:09:28.500Z,61.69
2023-07-25T18:12:15.511Z,61.51
2023-07-25T18:15:02.399Z,61.93
2023-07-25T18:17:49.499Z,62.39
2023-07-25T18:20:36.993Z,62.53
2023-07-25T18:23:25.594Z,62.29
2023-07-25T18:26:12.468Z,62.35
2023-07-25T18:28:59.392Z,61.97
2023-07-25T18:31:46.295Z,61.97
2023-07-25T18:34:33.769Z,61.88
2023-07-25T18:37:21.671Z,61.81
2023-07-25T18:40:09.263Z,61.96
2023-07-25T18:42:56.290Z,62.06
2023-07-25T18:45:44.648Z,62.34
2023-07-25T18:48:32.751Z,62.54
2023-07-25T18:51:19.558Z,62.79
2023-07-25T18:54:06.580Z,63.06
2023-07-25T18:56:53.235Z,63.18
2023-07-25T18:59:40.019Z,63.23
2023-07-25T19:02:27.115Z,63.19
2023-07-25T19:05:13.961Z,63.10
2023-07-25T19:08:00.811Z,63.44
2023-07-25T19:10:47.916Z,63.75
2023-07-25T19:13:34.886Z,63.94
2023-07-25T19:16:22.018Z,64.01
2023-07-25T19:19:08.780Z,64.33
2023-07-25T19:21:55.786Z,64.45
2023-07-25T19:24:43.162Z,64.39
2023-07-25T19:27:30.398Z,64.59
2023-07-25T19:30:17.366Z,64.80
2023-07-25T19:33:04.461Z,64.81
2023-07-25T19:35:57.350Z,64.82
2023-07-25T19:38:45.653Z,65.11
2023-07-25T19:41:33.064Z,65.44
2023-07-25T19:44:20.543Z,65.60
2023-07-25T19:47:07.340Z,65.61
2023-07-25T19:49:54.224Z,65.96
2023-07-25T19:52:41.245Z,66.05
2023-07-25T19:55:28.259Z,66.40
2023-07-25T19:58:15.178Z,66.51
2023-07-25T20:01:09.710Z,66.82
2023-07-25T20:03:58.109Z,67.04
2023-07-25T20:06:45.155Z,67.24
2023-07-25T20:09:32.046Z,67.13
2023-07-25T20:12:18.781Z,67.20
2023-07-25T20:15:06.832Z,67.27
2023-07-25T20:17:53.634Z,67.15
2023-07-25T20:20:40.358Z,67.73
2023-07-25T20:23:27.528Z,67.78
2023-07-25T20:26:14.955Z,67.95
2023-07-25T20:29:03.701Z,68.65
2023-07-25T20:31:50.631Z,68.83
2023-07-25T20:34:38.857Z,69.07
2023-07-25T20:37:25.828Z,69.14
2023-07-25T20:40:13.703Z,69.04
2023-07-25T20:43:00.561Z,69.41
2023-07-25T20:45:50.537Z,69.48
2023-07-25T20:48:37.255Z,69.76
2023-07-25T20:51:24.173Z,69.89
2023-07-25T20:54:11.136Z,70.12
2023-07-25T20:56:57.949Z,70.38
2023-07-25T20:59:45.643Z,70.48
2023-07-25T21:02:32.693Z,70.56
2023-07-25T21:05:20.027Z,70.88
2023-07-25T21:08:06.885Z,71.08
2023-07-25T21:10:53.713Z,71.22
2023-07-25T21:13:41.352Z,71.44
2023-07-25T21:16:28.162Z,71.44
2023-07-25T21:19:15.049Z,71.51
2023-07-25T21:22:02.036Z,71.90
2023-07-25T21:24:50.171Z,71.98
2023-07-25T21:27:37.232Z,72.31
2023-07-25T21:30:24.745Z,72.38
2023-07-25T21:33:11.552Z,72.37
2023-07-25T21:36:12.568Z,72.39
2023-07-25T21:38:59.327Z,72.47
2023-07-25T21:41:48.771Z,72.78
2023-07-25T21:44:35.858Z,72.67
2023-07-25T21:47:22.728Z,73.11
2023-07-25T21:50:10.469Z,73.51
2023-07-25T21:52:57.753Z,73.59
2023-07-25T21:55:47.489Z,73.74
2023-07-25T21:58:34.182Z,73.54
2023-07-25T22:01:21.663Z,73.43
2023-07-25T22:04:09.293Z,73.28
2023-07-25T22:06:56.212Z,73.47
2023-07-25T22:09:43.468Z,73.58
2023-07-25T22:12:30.593Z,73.78
2023-07-25T22:15:17.637Z,73.93
2023-07-25T22:18:04.904Z,73.57
2023-07-25T22:20:53.150Z,73.41
2023-07-25T22:23:40.613Z,73.41
2023-07-25T22:26:27.744Z,73.33
2023-07-25T22:29:14.405Z,73.26
2023-07-25T22:32:01.552Z,73.22
2023-07-25T22:34:48.371Z,73.35
2023-07-25T22:37:35.518Z,73.49
2023-07-25T22:40:22.676Z,73.56
2023-07-25T22:43:09.413Z,73.43
2023-07-25T22:45:56.386Z,73.24
2023-07-25T22:48:43.590Z,73.47
2023-07-25T22:51:30.848Z,73.60
2023-07-25T22:54:18.842Z,73.54
2023-07-25T22:57:07.107Z,73.05
2023-07-25T22:59:55.342Z,73.03
2023-07-25T23:02:42.497Z,73.13
2023-07-25T23:05:29.614Z,73.24
2023-07-25T23:08:16.727Z,72.97
2023-07-25T23:11:03.359Z,73.08
2023-07-25T23:13:50.096Z,73.23
2023-07-25T23:16:37.597Z,73.16
2023-07-25T23:19:24.573Z,73.26
2023-07-25T23:22:11.505Z,73.20
2023-07-25T23:24:59.177Z,73.41
2023-07-25T23:27:46.230Z,73.78
2023-07-25T23:30:33.306Z,73.36
2023-07-25T23:33:21.024Z,73.49
2023-07-25T23:36:08.070Z,73.72
2023-07-25T23:38:54.795Z,73.65
2023-07-25T23:41:41.730Z,73.70
2023-07-25T23:44:28.628Z,73.83
2023-07-25T23:47:15.467Z,73.96
2023-07-25T23:50:03.669Z,73.85
2023-07-25T23:52:51.988Z,74.09
2023-07-25T23:55:38.927Z,74.19
2023-07-25T23:58:26.062Z,74.15
